Adkins, Texas
Current Conditions -  °F | °C
As of 4:58 AM on Monday 20 Oct 2014 (Local Time) from KRND Reporting Station
Broken Clouds Broken Clouds  
Wind Chill: 66°   Ceiling: 6000
Heat Index: 66°   Visibility: 10mi
Dew Point: 63°   Wind: 5mph
Humidity: 88%   Direction: 60°ENE
Pressure: 30.02"   Gusts: NA
Location:  29.39°N, 98.24°W
Report Text: KRND 200958Z AUTO 06004KT 10SM BKN060 19/17 A3002 RMK AO2 SLP159 T01910170
Loading
Personal Weather Stations






























Interactive Weather Map New forecast layout! Learn more

10-Day Weather Forecast

Advertisements
Track Severe Weather on mobile